Nearby METAR Reports

 

KMLI - Moline/Quad City, Illinois, USA
Distance from station: ENE 4mi, 7km
Updated: 05/20/2024 6:52pm
Partly cloudy
Partly cloudy
 Wind from NNW
Wind: NNW 3 mph, 6 km/h
Temperature: 84°F, 29°C
Heat Index: 85°F, 29°C
Dew Point: 63°F, 17°C
Humidity: 48%
Barometer: 29.78 inHg, 1008.5 hPa
Clouds: Partly cloudy
Visibility: 10 miles, 16 km
Cloud details: Partly cloudy 12000 ft
2024/05/20 23:52 KMLI 202352Z 33003KT 10SM SCT120 29/17 A2978 RMK AO2 SLP080 T02890167 10300 20256 58008
KDVN - Davenport/Quad C, Iowa, USA
Distance from station: N 14mi, 22km
Updated: 05/20/2024 6:52pm
Few Clouds
Few Clouds
 Wind from N
Wind: N 10 mph, 17 km/h
Temperature: 81°F, 27°C
Heat Index: 82°F, 28°C
Dew Point: 63°F, 17°C
Humidity: 54%
Barometer: 29.82 inHg, 1009.8 hPa
Clouds: Few Clouds
Visibility: 10 miles, 16 km
Cloud details: Few Clouds 11000 ft
2024/05/20 23:52 KDVN 202352Z AUTO 01009KT 10SM FEW110 27/17 A2982 RMK AO2 SLP090 T02720172 10294 20256 56007
 
KMUT - Muscatine, Iowa, USA
Distance from station: W 29mi, 47km
Updated: 05/20/2024 7:35pm

 Wind from NE
Wind: NE 6 mph, 9 km/h
Temperature: 81°F, 27°C
Heat Index: 83°F, 28°C
Dew Point: 64°F, 18°C
Humidity: 58%
Barometer: 29.79 inHg, 1008.8 hPa
Visibility: 10 miles, 16 km
2024/05/21 00:35 KMUT 210035Z AUTO 05005KT 10SM 27/18 A2979 RMK AO2
KCWI - Clinton Muni, Iowa, USA
Distance from station: NNE 31mi, 50km
Updated: 05/20/2024 6:56pm
Mostly cloudy
Mostly cloudy
 Wind from N
Wind: N 7 mph, 11 km/h
Temperature: 79°F, 26°C
Dew Point: 63°F, 17°C
Humidity: 58%
Barometer: 29.82 inHg, 1009.8 hPa
Clouds: Mostly cloudy
Visibility: 10 miles, 16 km
Cloud details: Mostly cloudy 10000 ft
2024/05/20 23:56 KCWI 202356Z AUTO 35006KT 10SM BKN100 26/17 A2982 RMK AO2 SLP098 T02560167 10283 20250 56004
 
KGBG - Galesburg, Illinois, USA
Distance from station: SSE 35mi, 56km
Updated: 05/20/2024 7:35pm
Clear
Clear
 Wind from S
Wind: S 7 mph, 11 km/h
Temperature: 82°F, 28°C
Heat Index: 84°F, 29°C
Dew Point: 66°F, 19°C
Humidity: 58%
Barometer: 29.81 inHg, 1009.5 hPa
Clouds: Clear
Visibility: 10 miles, 16 km
2024/05/21 00:35 KGBG 210035Z AUTO 19006KT 10SM CLR 28/19 A2981 RMK AO2 T02800186
KSFY - Savanna/Tritown, Illinois, USA
Distance from station: NNE 50mi, 80km
Updated: 04/10/2024 9:28pm
NOT Current
Clear
Clear
 Wind from calm
Wind: Calm
Temperature: 55°F, 13°C
Dew Point: 39°F, 4°C
Humidity: 55%
Barometer: 29.80 inHg, 1009.1 hPa
Clouds: Clear
Visibility: 10 miles, 16 km
2024/04/11 02:28 KSFY 110228Z AUTO 00000KT 10SM CLR 13/04 A2980 RMK AO2